Time;durP1;ratioP1;P1;durP2;ratioP2;P2;SDS_P1;SDS_P2;PMS_P1;PMS_P2;Temp;Humidity;BMP_temperature;BMP_pressure;BME280_temperature;BME280_humidity;BME280_pressure;Samples;Min_cycle;Max_cycle;Signal;HPM_P1;HPM_P2
2023/04/16 00:00:19;;;;;;;15.65;5.88;;;10.90;96.60;;;;;;5032981;28;20018;-78
2023/04/16 00:02:45;;;;;;;12.23;4.80;;;10.90;96.50;;;;;;5032137;28;20053;-78
2023/04/16 00:05:11;;;;;;;14.95;5.32;;;10.90;96.90;;;;;;5029216;28;20014;-77
2023/04/16 00:07:47;;;;;;;11.07;4.20;;;10.80;96.90;;;;;;5028133;28;20753;-78
2023/04/16 00:10:13;;;;;;;17.77;5.85;;;10.80;96.70;;;;;;5015667;28;20064;-78
2023/04/16 00:12:40;;;;;;;15.43;5.85;;;10.80;96.80;;;;;;5030759;28;20025;-78
2023/04/16 00:15:06;;;;;;;14.70;4.88;;;10.80;96.80;;;;;;5032865;28;20029;-77
2023/04/16 00:17:37;;;;;;;13.13;5.15;;;10.80;96.80;;;;;;5029635;28;20018;-78
2023/04/16 00:20:10;;;;;;;15.35;5.60;;;10.80;97.10;;;;;;5021586;28;20026;-78
2023/04/16 00:22:42;;;;;;;20.40;5.97;;;10.80;96.90;;;;;;5032144;28;20107;-77
2023/04/16 00:25:09;;;;;;;9.38;3.72;;;10.80;97.20;;;;;;5039091;28;20060;-78
2023/04/16 00:27:38;;;;;;;17.88;7.95;;;10.80;96.90;;;;;;5035917;28;20065;-78
2023/04/16 00:30:06;;;;;;;15.60;4.68;;;10.80;97.70;;;;;;5015101;28;20165;-78
2023/04/16 00:32:38;;;;;;;9.75;3.58;;;10.70;97.20;;;;;;5033658;28;20021;-79
2023/04/16 00:35:04;;;;;;;15.82;6.53;;;10.70;96.80;;;;;;5034674;28;20037;-78
2023/04/16 00:37:30;;;;;;;16.10;5.88;;;10.80;96.60;;;;;;5032605;28;20036;-78
2023/04/16 00:39:56;;;;;;;12.23;4.20;;;10.80;96.90;;;;;;5033431;28;20033;-78
2023/04/16 00:42:22;;;;;;;10.38;4.55;;;10.80;96.60;;;;;;5035151;28;20021;-77
2023/04/16 00:44:48;;;;;;;14.13;5.55;;;10.80;96.70;;;;;;5039171;28;20026;-80
2023/04/16 00:47:14;;;;;;;18.63;8.10;;;10.80;97.30;;;;;;5032320;28;20025;-77
2023/04/16 00:49:40;;;;;;;10.65;4.53;;;10.90;97.90;;;;;;5014383;28;20049;-77
2023/04/16 00:52:07;;;;;;;10.18;3.30;;;10.90;97.20;;;;;;5019582;28;20032;-78
2023/04/16 00:54:42;;;;;;;20.55;8.68;;;10.80;97.00;;;;;;5039317;28;20038;-77
2023/04/16 00:57:09;;;;;;;10.38;3.22;;;10.80;97.50;;;;;;5041044;28;20032;-79
2023/04/16 00:59:35;;;;;;;20.88;9.00;;;10.80;97.10;;;;;;5042981;28;20017;-77
2023/04/16 01:02:00;;;;;;;9.93;4.72;;;10.80;97.70;;;;;;5039461;28;20476;-77
2023/04/16 01:04:28;;;;;;;19.08;7.28;;;10.80;97.30;;;;;;5038426;28;20041;-77
2023/04/16 01:06:53;;;;;;;15.77;5.88;;;10.80;97.00;;;;;;5034739;28;20049;-78
2023/04/16 01:09:19;;;;;;;12.38;4.72;;;10.90;97.40;;;;;;5033453;28;20033;-78
2023/04/16 01:11:44;;;;;;;18.48;9.18;;;10.90;97.30;;;;;;5020027;28;20080;-78
2023/04/16 01:14:11;;;;;;;13.27;5.85;;;10.90;97.60;;;;;;5041132;28;20032;-78
2023/04/16 01:16:37;;;;;;;23.05;8.52;;;10.90;97.60;;;;;;5045507;28;20026;-79
2023/04/16 01:19:02;;;;;;;19.30;7.93;;;10.90;97.00;;;;;;5047431;28;20036;-78
2023/04/16 01:21:30;;;;;;;20.83;8.05;;;10.90;97.30;;;;;;5046339;28;20089;-78
2023/04/16 01:23:55;;;;;;;17.35;6.90;;;10.90;97.60;;;;;;5029063;28;20034;-79
2023/04/16 01:26:22;;;;;;;18.65;7.18;;;10.90;97.60;;;;;;5027055;28;20116;-78
2023/04/16 01:28:48;;;;;;;15.73;6.68;;;10.90;97.40;;;;;;5041981;28;20060;-79
2023/04/16 01:31:14;;;;;;;15.93;5.78;;;10.90;97.60;;;;;;5041179;28;20029;-77
2023/04/16 01:33:39;;;;;;;14.65;6.03;;;10.90;97.30;;;;;;5041064;28;20028;-79
2023/04/16 01:36:05;;;;;;;20.35;8.90;;;11.00;96.50;;;;;;5044609;28;20048;-79
2023/04/16 01:38:31;;;;;;;17.27;6.63;;;10.90;97.40;;;;;;5041131;28;20038;-79
2023/04/16 01:40:58;;;;;;;17.75;6.03;;;10.90;97.80;;;;;;5040251;28;20064;-79
2023/04/16 01:43:24;;;;;;;18.77;7.38;;;10.90;97.80;;;;;;5038373;28;20098;-79
2023/04/16 01:45:50;;;;;;;17.98;7.65;;;11.00;97.50;;;;;;5018520;28;20422;-79
2023/04/16 01:48:16;;;;;;;19.83;6.30;;;11.00;97.90;;;;;;5036743;28;20108;-78
2023/04/16 01:50:41;;;;;;;29.33;12.68;;;11.00;98.10;;;;;;5035414;28;20068;-77
2023/04/16 01:53:09;;;;;;;16.58;7.45;;;11.00;98.50;;;;;;5018671;28;20025;-78
2023/04/16 01:55:35;;;;;;;27.30;11.77;;;10.90;98.00;;;;;;5037910;28;20088;-78
2023/04/16 01:58:00;;;;;;;33.95;13.73;;;10.90;98.60;;;;;;5020447;28;20021;-78
2023/04/16 02:00:26;;;;;;;23.70;9.32;;;10.90;98.70;;;;;;5020137;28;20037;-78
2023/04/16 02:02:53;;;;;;;19.75;8.05;;;10.90;98.30;;;;;;5032153;28;20046;-78
2023/04/16 02:05:33;;;;;;;22.02;9.23;;;10.90;98.40;;;;;;5019079;28;20030;-79
2023/04/16 02:07:59;;;;;;;20.13;7.88;;;10.80;98.70;;;;;;5035878;28;20018;-78
2023/04/16 02:10:24;;;;;;;34.58;15.63;;;10.80;98.60;;;;;;5023860;28;20021;-79
2023/04/16 02:12:50;;;;;;;22.30;10.70;;;10.90;98.20;;;;;;5018106;28;20076;-79
2023/04/16 02:15:16;;;;;;;26.50;13.18;;;10.90;98.80;;;;;;5036601;28;20565;-78
2023/04/16 02:17:41;;;;;;;42.22;17.80;;;10.90;99.20;;;;;;5019208;28;20022;-78
2023/04/16 02:20:09;;;;;;;29.58;14.25;;;10.90;99.60;;;;;;5034666;28;20032;-78
2023/04/16 02:22:35;;;;;;;25.50;12.40;;;10.80;99.30;;;;;;5031011;28;20026;-78
2023/04/16 02:25:00;;;;;;;23.35;10.68;;;10.80;99.40;;;;;;5014077;28;20105;-78
2023/04/16 02:27:26;;;;;;;26.48;11.98;;;10.80;99.50;;;;;;5026770;28;20443;-79
2023/04/16 02:29:52;;;;;;;33.42;15.48;;;10.90;98.60;;;;;;5030710;28;20484;-79
2023/04/16 02:32:21;;;;;;;29.13;15.43;;;10.90;98.70;;;;;;5030880;28;20593;-78
2023/04/16 02:34:46;;;;;;;15.18;6.18;;;10.90;99.10;;;;;;5015219;28;20057;-79
2023/04/16 02:37:14;;;;;;;32.33;13.95;;;10.90;98.50;;;;;;5037560;28;20025;-78
2023/04/16 02:39:40;;;;;;;20.33;8.57;;;10.90;98.50;;;;;;5039418;28;20018;-79
2023/04/16 02:42:06;;;;;;;27.20;13.02;;;10.90;98.90;;;;;;5039721;28;20166;-80
2023/04/16 02:44:32;;;;;;;32.40;13.40;;;10.90;99.20;;;;;;5038660;28;20147;-78
2023/04/16 02:46:58;;;;;;;28.67;16.30;;;10.90;99.00;;;;;;5039904;28;20113;-79
2023/04/16 02:49:26;;;;;;;39.13;19.15;;;10.90;99.10;;;;;;5040354;28;20052;-78
2023/04/16 02:51:56;;;;;;;15.70;6.93;;;10.90;99.10;;;;;;5039608;28;20026;-79
2023/04/16 02:54:22;;;;;;;15.18;7.70;;;11.00;98.30;;;;;;5038245;28;20104;-77
2023/04/16 02:56:48;;;;;;;41.88;17.75;;;11.00;98.30;;;;;;5038725;28;20103;-78
2023/04/16 02:59:13;;;;;;;25.90;10.85;;;11.00;98.50;;;;;;5031940;28;20018;-78
2023/04/16 03:01:39;;;;;;;22.48;8.55;;;11.00;98.70;;;;;;5023416;28;20068;-79
2023/04/16 03:04:05;;;;;;;24.13;11.05;;;11.00;98.80;;;;;;5019428;28;20029;-77
2023/04/16 03:06:30;;;;;;;28.00;11.93;;;11.10;98.70;;;;;;5036789;28;20025;-77
2023/04/16 03:08:56;;;;;;;19.58;10.32;;;11.10;98.50;;;;;;5036667;28;20029;-78
2023/04/16 03:11:22;;;;;;;24.60;10.52;;;11.10;98.10;;;;;;5039320;28;20025;-77
2023/04/16 03:13:49;;;;;;;33.70;16.50;;;11.00;98.00;;;;;;5035198;28;20199;-78
2023/04/16 03:16:21;;;;;;;29.85;14.32;;;11.10;98.40;;;;;;5033532;28;20041;-78
2023/04/16 03:18:47;;;;;;;18.50;9.07;;;11.10;97.70;;;;;;5017266;28;20026;-77
2023/04/16 03:21:12;;;;;;;17.13;9.98;;;11.10;97.30;;;;;;5019580;28;20476;-78
2023/04/16 03:23:38;;;;;;;30.48;13.65;;;11.10;97.70;;;;;;5027455;28;20087;-77
2023/04/16 03:26:06;;;;;;;28.77;13.43;;;11.10;98.20;;;;;;5027223;28;20026;-77
2023/04/16 03:28:31;;;;;;;30.70;16.08;;;11.00;98.40;;;;;;5032852;28;20032;-78
2023/04/16 03:31:01;;;;;;;25.42;12.30;;;11.10;98.50;;;;;;5031653;28;20022;-78
2023/04/16 03:33:27;;;;;;;31.52;15.98;;;11.00;98.40;;;;;;5031815;28;20017;-77
2023/04/16 03:35:57;;;;;;;30.20;14.05;;;11.00;98.60;;;;;;5032044;28;20430;-77
2023/04/16 03:38:24;;;;;;;20.70;8.05;;;11.00;98.60;;;;;;5013102;28;20023;-77
2023/04/16 03:40:50;;;;;;;27.27;12.68;;;11.00;97.80;;;;;;5030109;28;20035;-79
2023/04/16 03:43:16;;;;;;;28.75;14.90;;;11.00;98.10;;;;;;5025820;28;20022;-79
2023/04/16 03:45:46;;;;;;;30.60;13.13;;;11.00;98.80;;;;;;5030980;28;20113;-78
2023/04/16 03:48:12;;;;;;;31.85;15.48;;;11.00;99.10;;;;;;5012375;28;20018;-78
2023/04/16 03:50:39;;;;;;;24.23;12.02;;;11.00;99.20;;;;;;5013247;28;20193;-78
2023/04/16 03:53:05;;;;;;;32.20;16.50;;;11.00;99.30;;;;;;5029929;28;20527;-78
2023/04/16 03:55:30;;;;;;;18.45;8.30;;;11.10;99.20;;;;;;5012720;28;20033;-78
2023/04/16 03:57:56;;;;;;;28.02;14.73;;;11.10;98.80;;;;;;5030474;28;20025;-79
2023/04/16 04:00:22;;;;;;;35.63;17.63;;;11.10;98.80;;;;;;5028956;28;20033;-79
2023/04/16 04:02:48;;;;;;;20.55;11.30;;;11.10;99.50;;;;;;5008189;28;20404;-78
2023/04/16 04:05:14;;;;;;;26.52;11.90;;;11.00;98.90;;;;;;5010027;28;20034;-78
2023/04/16 04:07:40;;;;;;;37.83;17.27;;;11.00;98.30;;;;;;5010095;28;20014;-78
2023/04/16 04:10:06;;;;;;;39.08;20.65;;;11.00;98.80;;;;;;5010355;28;20022;-79
2023/04/16 04:12:32;;;;;;;36.25;17.85;;;11.00;99.30;;;;;;5009690;28;20024;-79
2023/04/16 04:14:57;;;;;;;30.50;15.15;;;11.00;99.60;;;;;;5004406;28;20026;-77
2023/04/16 04:17:23;;;;;;;32.42;16.20;;;11.00;99.60;;;;;;5009967;28;20034;-78
2023/04/16 04:19:49;;;;;;;34.42;17.23;;;11.00;99.50;;;;;;5009255;28;20022;-77
2023/04/16 04:22:14;;;;;;;42.22;22.17;;;11.00;99.70;;;;;;5007970;28;20484;-78
2023/04/16 04:24:40;;;;;;;20.52;10.23;;;11.00;99.60;;;;;;5007839;28;20022;-78
2023/04/16 04:27:06;;;;;;;38.15;21.40;;;11.00;99.20;;;;;;5009946;28;20160;-78
2023/04/16 04:29:31;;;;;;;31.23;15.18;;;11.00;98.90;;;;;;5008282;28;20064;-78
2023/04/16 04:31:57;;;;;;;25.63;13.07;;;11.00;99.30;;;;;;5007972;28;20040;-78
2023/04/16 04:34:23;;;;;;;44.30;21.27;;;11.00;99.40;;;;;;5007628;28;20029;-78
2023/04/16 04:36:49;;;;;;;41.55;20.02;;;11.00;99.60;;;;;;5008357;28;20033;-77
2023/04/16 04:39:15;;;;;;;30.00;16.77;;;11.00;99.90;;;;;;5008445;28;20026;-77
2023/04/16 04:41:40;;;;;;;22.13;10.75;;;11.00;99.80;;;;;;5008959;28;20496;-77
2023/04/16 04:44:06;;;;;;;37.83;17.92;;;11.00;99.20;;;;;;5007221;28;20068;-78
2023/04/16 04:46:32;;;;;;;25.55;11.27;;;11.00;99.50;;;;;;5007077;28;20112;-77
2023/04/16 04:48:57;;;;;;;23.63;11.15;;;11.00;99.50;;;;;;5008946;28;20435;-79
2023/04/16 04:51:23;;;;;;;24.23;13.07;;;11.00;98.50;;;;;;5008235;28;20031;-78
2023/04/16 04:53:49;;;;;;;36.15;17.83;;;10.90;99.20;;;;;;5006605;28;20446;-78
2023/04/16 04:56:14;;;;;;;40.00;20.52;;;11.00;99.40;;;;;;5008396;28;20044;-77
2023/04/16 04:58:42;;;;;;;45.92;22.10;;;11.00;99.40;;;;;;5006070;28;20026;-79
2023/04/16 05:01:07;;;;;;;22.13;9.80;;;11.00;99.50;;;;;;5006857;28;20010;-78
2023/04/16 05:03:33;;;;;;;32.78;14.93;;;11.00;99.30;;;;;;5024159;28;20060;-78
2023/04/16 05:05:59;;;;;;;40.25;19.88;;;11.00;98.90;;;;;;5032470;28;20421;-78
2023/04/16 05:08:25;;;;;;;34.45;15.50;;;11.00;99.30;;;;;;5028448;28;20026;-77
2023/04/16 05:10:50;;;;;;;28.42;15.32;;;11.10;99.50;;;;;;5010691;28;20083;-78
2023/04/16 05:13:16;;;;;;;44.42;22.10;;;11.10;99.40;;;;;;5028916;28;20116;-79
2023/04/16 05:15:43;;;;;;;44.47;23.48;;;11.10;99.70;;;;;;5010861;28;20068;-79
2023/04/16 05:18:10;;;;;;;41.97;18.65;;;11.10;99.90;;;;;;5009807;28;20105;-79
2023/04/16 05:20:36;;;;;;;56.90;26.58;;;11.10;99.90;;;;;;5027294;28;20404;-78
2023/04/16 05:23:02;;;;;;;41.38;18.63;;;11.10;99.90;;;;;;5009912;28;20026;-78
2023/04/16 05:25:28;;;;;;;43.95;20.15;;;11.00;99.90;;;;;;5026263;28;20040;-78
2023/04/16 05:27:55;;;;;;;35.58;19.48;;;11.10;99.90;;;;;;5023367;28;20029;-78
2023/04/16 05:30:20;;;;;;;25.27;12.13;;;11.10;99.90;;;;;;5026651;28;20033;-78
2023/04/16 05:32:46;;;;;;;46.95;21.48;;;11.10;98.90;;;;;;5008625;28;20022;-78
2023/04/16 05:35:13;;;;;;;32.45;17.02;;;11.10;99.30;;;;;;5009009;28;20033;-78
2023/04/16 05:37:38;;;;;;;36.17;16.35;;;11.10;99.20;;;;;;5012701;28;20025;-78
2023/04/16 05:40:04;;;;;;;27.30;14.15;;;11.10;98.90;;;;;;5010775;28;20021;-78
2023/04/16 05:42:30;;;;;;;32.85;15.98;;;11.10;98.80;;;;;;5010021;28;20108;-77
2023/04/16 05:44:56;;;;;;;38.08;19.60;;;11.00;99.30;;;;;;5010179;28;20025;-78
2023/04/16 05:47:22;;;;;;;31.17;14.82;;;11.10;99.60;;;;;;5027310;28;20032;-78
2023/04/16 05:49:48;;;;;;;25.42;13.40;;;11.10;99.60;;;;;;5027930;28;20128;-77
2023/04/16 05:52:14;;;;;;;37.38;18.45;;;11.10;98.60;;;;;;5008625;28;20101;-78
2023/04/16 05:54:39;;;;;;;40.03;20.63;;;11.10;98.90;;;;;;5027126;28;20041;-78
2023/04/16 05:57:05;;;;;;;14.25;6.90;;;11.10;99.40;;;;;;5010010;28;20451;-78
2023/04/16 05:59:31;;;;;;;22.05;11.43;;;11.10;98.60;;;;;;5008735;28;20758;-76
2023/04/16 06:01:57;;;;;;;32.58;16.63;;;11.00;98.80;;;;;;5028376;28;20080;-77
2023/04/16 06:04:23;;;;;;;31.90;17.33;;;11.10;99.10;;;;;;5020210;28;20057;-77
2023/04/16 06:06:48;;;;;;;27.42;16.42;;;11.10;99.30;;;;;;5022157;28;20651;-78
2023/04/16 06:09:14;;;;;;;17.52;9.20;;;11.10;99.50;;;;;;5027837;28;20022;-77
2023/04/16 06:11:40;;;;;;;26.58;12.75;;;11.10;98.70;;;;;;5031034;28;20033;-77
2023/04/16 06:14:05;;;;;;;24.83;13.23;;;11.10;98.90;;;;;;5031266;28;20021;-77
2023/04/16 06:16:31;;;;;;;21.00;8.45;;;11.10;99.10;;;;;;5026242;28;20034;-79
2023/04/16 06:18:57;;;;;;;32.35;15.07;;;11.20;98.30;;;;;;5031086;28;20026;-78
2023/04/16 06:21:23;;;;;;;38.33;20.23;;;11.20;98.70;;;;;;5013198;28;20071;-79
2023/04/16 06:23:49;;;;;;;10.02;4.82;;;11.10;99.20;;;;;;5028911;28;20021;-79
2023/04/16 06:26:14;;;;;;;21.85;9.80;;;11.20;98.30;;;;;;5009932;28;20503;-78
2023/04/16 06:28:40;;;;;;;18.63;10.55;;;11.10;98.60;;;;;;5027856;28;20032;-78
2023/04/16 06:31:06;;;;;;;20.48;9.75;;;11.10;99.00;;;;;;5030407;28;20043;-78
2023/04/16 06:33:31;;;;;;;25.20;15.57;;;11.20;98.80;;;;;;5029544;28;20032;-79
2023/04/16 06:35:57;;;;;;;28.77;15.90;;;11.20;99.10;;;;;;5037862;28;20411;-78
2023/04/16 06:38:24;;;;;;;31.55;18.17;;;11.20;99.10;;;;;;5037063;28;20025;-77
2023/04/16 06:40:50;;;;;;;25.88;14.00;;;11.20;99.10;;;;;;5034551;28;20033;-78
2023/04/16 06:43:16;;;;;;;20.67;10.88;;;11.20;99.30;;;;;;5018704;28;20016;-80
2023/04/16 06:45:43;;;;;;;31.25;18.13;;;11.30;98.50;;;;;;5021814;28;20022;-79
2023/04/16 06:48:10;;;;;;;39.85;21.60;;;11.30;99.10;;;;;;5036264;28;20033;-79
2023/04/16 06:50:36;;;;;;;31.55;16.92;;;11.30;99.60;;;;;;5041008;28;20016;-79
2023/04/16 06:53:02;;;;;;;28.63;16.38;;;11.40;99.30;;;;;;5040350;28;20095;-80
2023/04/16 06:55:28;;;;;;;32.15;18.58;;;11.40;99.70;;;;;;5024193;28;20800;-77
2023/04/16 06:57:53;;;;;;;36.80;19.80;;;11.50;99.90;;;;;;5039065;28;20088;-77
2023/04/16 07:00:19;;;;;;;33.38;19.20;;;11.60;99.40;;;;;;5019264;28;20057;-79
2023/04/16 07:02:45;;;;;;;23.58;10.35;;;11.70;99.80;;;;;;5039544;28;20547;-79
2023/04/16 07:05:13;;;;;;;24.13;11.60;;;11.80;99.40;;;;;;5037369;28;20040;-79
2023/04/16 07:07:39;;;;;;;20.25;11.13;;;11.90;99.20;;;;;;5012962;28;20021;-79
2023/04/16 07:10:05;;;;;;;21.95;11.75;;;12.10;99.50;;;;;;5034400;28;20475;-79
2023/04/16 07:12:32;;;;;;;15.95;8.02;;;12.30;99.40;;;;;;5032485;28;20037;-79
2023/04/16 07:14:57;;;;;;;21.25;10.70;;;12.40;99.50;;;;;;5031673;28;20029;-79
2023/04/16 07:17:23;;;;;;;24.08;11.45;;;12.70;99.40;;;;;;5020500;28;20056;-79
2023/04/16 07:19:50;;;;;;;17.17;8.55;;;12.80;99.20;;;;;;5031704;28;20025;-78
2023/04/16 07:22:15;;;;;;;20.17;10.23;;;12.90;99.00;;;;;;5030295;28;20033;-78
2023/04/16 07:24:41;;;;;;;24.13;13.25;;;13.00;98.70;;;;;;5030234;28;20084;-79
2023/04/16 07:27:07;;;;;;;21.58;11.93;;;13.20;98.60;;;;;;5029118;28;20022;-79
2023/04/16 07:29:32;;;;;;;12.68;8.90;;;13.20;98.40;;;;;;5029185;28;20018;-79
2023/04/16 07:31:58;;;;;;;19.80;10.80;;;13.30;98.40;;;;;;5030489;28;20395;-79
2023/04/16 07:34:23;;;;;;;18.98;9.05;;;13.40;98.20;;;;;;5037008;28;20029;-78
2023/04/16 07:36:49;;;;;;;18.50;9.98;;;13.50;98.30;;;;;;5040617;28;20903;-79
2023/04/16 07:39:15;;;;;;;17.00;9.70;;;13.60;98.30;;;;;;5029899;28;20476;-78
2023/04/16 07:41:42;;;;;;;19.48;9.70;;;13.70;98.00;;;;;;5030084;28;20468;-79
2023/04/16 07:44:07;;;;;;;30.52;19.05;;;13.70;98.10;;;;;;5012342;28;20021;-80
2023/04/16 07:46:33;;;;;;;28.10;17.50;;;13.70;97.20;;;;;;5028629;28;20441;-79
2023/04/16 07:48:59;;;;;;;23.55;14.70;;;13.70;96.60;;;;;;5012335;28;20025;-79
2023/04/16 07:51:25;;;;;;;30.25;19.40;;;13.60;96.30;;;;;;5028930;28;20033;-79
2023/04/16 07:53:50;;;;;;;22.20;14.00;;;13.60;96.10;;;;;;5028141;28;20053;-80
2023/04/16 07:56:16;;;;;;;28.88;19.20;;;13.50;95.70;;;;;;5028462;28;20496;-80
2023/04/16 07:58:42;;;;;;;25.52;16.05;;;13.40;96.00;;;;;;5029766;28;20036;-81
2023/04/16 08:01:07;;;;;;;32.58;19.00;;;13.40;95.80;;;;;;5025740;28;20049;-79
2023/04/16 08:03:33;;;;;;;19.48;12.38;;;13.30;96.10;;;;;;5029018;28;20045;-79
2023/04/16 08:05:59;;;;;;;17.25;11.13;;;13.40;95.90;;;;;;5027418;28;20013;-80
2023/04/16 08:08:25;;;;;;;27.10;16.00;;;13.40;95.40;;;;;;5012864;28;20112;-78
2023/04/16 08:10:54;;;;;;;31.05;18.45;;;13.40;95.60;;;;;;5012971;28;20036;-79
2023/04/16 08:13:21;;;;;;;25.73;14.88;;;13.50;95.20;;;;;;5028500;28;20036;-80
2023/04/16 08:15:47;;;;;;;25.52;15.88;;;13.50;95.00;;;;;;5035869;28;20083;-79
2023/04/16 08:18:14;;;;;;;26.52;14.88;;;13.60;95.00;;;;;;5035617;28;20025;-79
2023/04/16 08:20:41;;;;;;;25.75;14.52;;;13.60;95.10;;;;;;5031884;28;20017;-80
2023/04/16 08:23:08;;;;;;;26.70;16.27;;;13.40;95.50;;;;;;5031066;28;20104;-80
2023/04/16 08:25:34;;;;;;;31.83;17.45;;;13.40;95.70;;;;;;5033950;28;20522;-79
2023/04/16 08:28:00;;;;;;;25.45;14.35;;;13.30;95.40;;;;;;5026286;28;20026;-79
2023/04/16 08:30:26;;;;;;;26.38;16.73;;;13.30;95.60;;;;;;5012700;28;20047;-79
2023/04/16 08:32:51;;;;;;;20.67;13.25;;;13.30;95.40;;;;;;5028947;28;20022;-78
2023/04/16 08:35:17;;;;;;;27.90;14.73;;;13.40;95.60;;;;;;5032158;28;20064;-78
2023/04/16 08:37:43;;;;;;;18.48;10.13;;;13.40;95.60;;;;;;5033633;28;20017;-78
2023/04/16 08:40:09;;;;;;;27.70;17.50;;;13.50;94.80;;;;;;5022121;28;20048;-77
2023/04/16 08:42:57;;;;;;;22.88;13.55;;;13.60;94.30;;;;;;5034952;28;20092;-77
2023/04/16 08:45:25;;;;;;;32.85;19.48;;;13.70;94.00;;;;;;5020905;28;20080;-80
2023/04/16 08:47:52;;;;;;;20.85;10.75;;;13.80;94.30;;;;;;5034065;28;20033;-79
2023/04/16 08:50:23;;;;;;;31.67;16.80;;;14.00;93.70;;;;;;5037089;28;20029;-78
2023/04/16 08:52:57;;;;;;;23.52;12.77;;;14.10;94.10;;;;;;5034176;28;20053;-78
2023/04/16 08:55:29;;;;;;;31.92;18.17;;;14.10;93.90;;;;;;5030068;28;20042;-78
2023/04/16 08:58:00;;;;;;;24.45;14.35;;;14.20;94.30;;;;;;5027884;28;20408;-78
2023/04/16 09:00:27;;;;;;;31.35;18.40;;;14.20;94.10;;;;;;5027817;28;20060;-78
2023/04/16 09:02:52;;;;;;;40.10;22.10;;;14.20;94.10;;;;;;5025949;28;20045;-78
2023/04/16 09:05:21;;;;;;;27.60;15.05;;;14.20;93.60;;;;;;5025279;28;20075;-80
2023/04/16 09:07:47;;;;;;;21.42;11.05;;;14.20;93.40;;;;;;5018989;28;20029;-78
2023/04/16 09:10:16;;;;;;;30.35;16.25;;;14.30;93.30;;;;;;5031019;28;20904;-79
2023/04/16 09:12:43;;;;;;;38.80;23.75;;;14.30;93.30;;;;;;5024871;28;20026;-78
2023/04/16 09:15:11;;;;;;;36.40;20.85;;;14.30;93.90;;;;;;5028248;28;20044;-78
2023/04/16 09:17:37;;;;;;;31.85;19.42;;;14.30;93.20;;;;;;5027482;28;20148;-79
2023/04/16 09:20:05;;;;;;;32.95;17.70;;;14.30;93.70;;;;;;5027699;28;20032;-79
2023/04/16 09:22:31;;;;;;;22.40;11.55;;;14.40;93.30;;;;;;5027216;28;20018;-81
2023/04/16 09:24:57;;;;;;;28.98;15.07;;;14.40;92.80;;;;;;5028591;28;20407;-78
2023/04/16 09:27:24;;;;;;;30.08;17.48;;;14.40;93.00;;;;;;5018045;28;20030;-80
2023/04/16 09:29:52;;;;;;;23.15;13.23;;;14.50;93.00;;;;;;5012011;28;20029;-81
2023/04/16 09:32:25;;;;;;;28.85;17.67;;;14.50;92.90;;;;;;5030296;28;20030;-78
2023/04/16 09:35:01;;;;;;;27.52;16.60;;;14.60;92.80;;;;;;5027679;28;20025;-79
2023/04/16 09:37:28;;;;;;;29.00;15.57;;;14.70;92.90;;;;;;5027614;28;20025;-78
2023/04/16 09:40:04;;;;;;;24.90;12.88;;;14.70;92.80;;;;;;5028811;28;20029;-78
2023/04/16 09:42:35;;;;;;;42.03;22.70;;;14.70;92.60;;;;;;5028520;28;20026;-79
2023/04/16 09:45:01;;;;;;;35.97;20.35;;;14.70;92.80;;;;;;5028717;28;20025;-77
2023/04/16 09:47:44;;;;;;;21.27;13.65;;;14.70;93.30;;;;;;5031343;28;20036;-79
2023/04/16 09:50:15;;;;;;;22.48;11.77;;;14.90;92.90;;;;;;5031914;28;20096;-79
2023/04/16 09:52:43;;;;;;;36.30;19.60;;;14.90;92.60;;;;;;5031779;28;20070;-78
2023/04/16 09:55:09;;;;;;;35.38;22.27;;;14.90;92.90;;;;;;5013847;28;20500;-78
2023/04/16 09:57:37;;;;;;;22.40;14.45;;;14.90;93.20;;;;;;5009628;28;20022;-79
2023/04/16 10:00:10;;;;;;;30.45;15.32;;;15.00;92.80;;;;;;5025233;28;20022;-78
2023/04/16 10:02:40;;;;;;;40.75;22.23;;;15.10;92.60;;;;;;5030250;28;20041;-78
2023/04/16 10:05:06;;;;;;;41.58;22.25;;;15.20;92.70;;;;;;5030966;28;20498;-80
2023/04/16 10:07:36;;;;;;;27.27;14.27;;;15.10;92.80;;;;;;5031450;28;20104;-78
2023/04/16 10:10:02;;;;;;;27.33;18.30;;;15.30;92.00;;;;;;5033694;28;20021;-80
2023/04/16 10:12:31;;;;;;;38.65;23.52;;;15.20;92.30;;;;;;5034592;28;20348;-82
2023/04/16 10:14:57;;;;;;;39.53;21.90;;;15.20;92.30;;;;;;5033523;28;20037;-82
2023/04/16 10:17:25;;;;;;;32.92;21.02;;;15.10;92.60;;;;;;5023451;28;20037;-82
2023/04/16 10:19:52;;;;;;;37.15;22.48;;;15.10;92.50;;;;;;5009622;28;20396;-82
2023/04/16 10:22:18;;;;;;;35.28;20.73;;;15.10;92.60;;;;;;5034533;28;20053;-81
2023/04/16 10:24:49;;;;;;;34.78;19.73;;;15.10;92.70;;;;;;5035557;28;20021;-81
2023/04/16 10:27:16;;;;;;;32.03;18.25;;;15.10;92.70;;;;;;5036333;28;20026;-83
2023/04/16 10:29:43;;;;;;;43.70;23.13;;;15.20;92.60;;;;;;5020911;28;20159;-81
2023/04/16 10:32:09;;;;;;;36.85;21.13;;;15.30;92.40;;;;;;5028329;28;20026;-81
2023/04/16 10:34:35;;;;;;;23.08;14.13;;;15.30;92.50;;;;;;5031555;28;20033;-81
2023/04/16 10:37:01;;;;;;;24.98;13.93;;;15.40;92.40;;;;;;5033306;28;20034;-86
2023/04/16 10:39:28;;;;;;;43.00;24.05;;;15.50;92.30;;;;;;5031272;28;20115;-80
2023/04/16 10:42:08;;;;;;;45.00;24.52;;;15.60;92.00;;;;;;5026789;28;20384;-81
2023/04/16 10:44:35;;;;;;;32.28;19.23;;;15.60;91.90;;;;;;5022740;28;20430;-82
2023/04/16 10:47:01;;;;;;;46.05;27.05;;;15.60;91.80;;;;;;5026534;28;20018;-81
2023/04/16 10:49:29;;;;;;;32.83;20.92;;;15.50;91.90;;;;;;5026463;28;20145;-80
2023/04/16 10:51:55;;;;;;;35.40;20.67;;;15.50;91.70;;;;;;5025566;28;20079;-80
2023/04/16 10:54:26;;;;;;;32.88;19.00;;;15.50;91.70;;;;;;5008097;28;20018;-84
2023/04/16 10:56:55;;;;;;;32.35;19.52;;;15.60;91.80;;;;;;5027566;28;20026;-83
2023/04/16 10:59:22;;;;;;;32.78;17.38;;;15.60;91.80;;;;;;5031267;28;20034;-82
2023/04/16 11:01:51;;;;;;;28.95;15.07;;;15.70;91.60;;;;;;5028073;28;20082;-81
2023/04/16 11:04:20;;;;;;;35.90;20.85;;;15.90;91.30;;;;;;5026158;28;20049;-84
2023/04/16 11:07:17;;;;;;;39.15;21.45;;;16.00;91.10;;;;;;5023855;28;20030;-80
2023/04/16 11:09:49;;;;;;;29.40;18.45;;;16.00;91.00;;;;;;5025047;28;20017;-76
2023/04/16 11:12:26;;;;;;;21.08;13.32;;;16.10;91.10;;;;;;5005021;28;20035;-77
2023/04/16 11:15:01;;;;;;;24.45;14.05;;;16.20;90.90;;;;;;5022391;28;20053;-77
2023/04/16 11:17:30;;;;;;;26.67;11.85;;;16.30;90.70;;;;;;5027626;28;20631;-77
2023/04/16 11:19:56;;;;;;;29.88;19.02;;;16.40;90.70;;;;;;5023931;28;20032;-77
2023/04/16 11:22:22;;;;;;;35.20;19.40;;;16.50;90.30;;;;;;5006439;28;20022;-77
2023/04/16 11:24:56;;;;;;;35.05;18.80;;;16.40;90.00;;;;;;5022994;28;20033;-78
2023/04/16 11:27:23;;;;;;;30.90;19.05;;;16.50;90.50;;;;;;5026839;28;20483;-76
2023/04/16 11:30:06;;;;;;;26.52;15.80;;;16.40;89.90;;;;;;5024045;28;20391;-77
2023/04/16 11:32:36;;;;;;;29.90;17.40;;;16.40;90.30;;;;;;5020818;28;20037;-76
2023/04/16 11:35:16;;;;;;;35.20;20.42;;;16.30;90.40;;;;;;5024368;28;20084;-76
2023/04/16 11:37:42;;;;;;;24.02;15.02;;;16.30;90.40;;;;;;5022339;28;20071;-77
2023/04/16 11:40:11;;;;;;;24.60;15.25;;;16.30;90.60;;;;;;5004134;28;20022;-77
2023/04/16 11:42:39;;;;;;;24.92;14.27;;;16.30;90.50;;;;;;5022918;28;20033;-76
2023/04/16 11:45:07;;;;;;;23.85;13.73;;;16.40;90.50;;;;;;5026235;28;20492;-76
2023/04/16 11:47:50;;;;;;;31.98;17.75;;;16.50;90.80;;;;;;5022062;28;20022;-77
2023/04/16 11:50:18;;;;;;;17.45;10.15;;;16.40;90.40;;;;;;5024300;28;20529;-76
2023/04/16 11:52:44;;;;;;;31.88;17.02;;;16.40;90.80;;;;;;5020766;28;20032;-76
2023/04/16 11:55:09;;;;;;;31.67;17.60;;;16.30;90.50;;;;;;5022204;28;20391;-77
2023/04/16 11:57:37;;;;;;;27.10;14.32;;;16.40;90.30;;;;;;5027626;28;20033;-76
2023/04/16 12:00:04;;;;;;;25.20;14.60;;;16.50;90.40;;;;;;5006540;28;20091;-76
2023/04/16 12:02:38;;;;;;;24.23;14.57;;;16.50;90.00;;;;;;5023770;28;20054;-78
2023/04/16 12:05:29;;;;;;;25.45;14.30;;;16.70;90.40;;;;;;5031299;28;20025;-76
2023/04/16 12:07:56;;;;;;;30.95;17.10;;;16.70;90.00;;;;;;5028067;28;20029;-77
2023/04/16 12:10:23;;;;;;;20.20;11.30;;;16.80;90.00;;;;;;5028573;28;20025;-76
2023/04/16 12:12:48;;;;;;;16.67;9.65;;;16.90;90.10;;;;;;5011258;28;20026;-77
2023/04/16 12:15:14;;;;;;;27.48;15.45;;;17.00;90.30;;;;;;5008406;28;20036;-76
2023/04/16 12:17:40;;;;;;;19.98;9.85;;;17.10;89.10;;;;;;5029801;28;20411;-75
2023/04/16 12:20:13;;;;;;;29.08;14.48;;;17.20;90.30;;;;;;5023811;28;20062;-76
2023/04/16 12:22:49;;;;;;;27.48;13.27;;;17.10;90.10;;;;;;5030561;28;20033;-76
2023/04/16 12:25:18;;;;;;;22.85;12.55;;;17.00;90.10;;;;;;5010642;28;20022;-76
2023/04/16 12:27:51;;;;;;;22.30;12.32;;;16.80;90.20;;;;;;4992853;28;20592;-77
2023/04/16 12:30:19;;;;;;;21.63;12.25;;;16.80;90.30;;;;;;5016036;28;20157;-77